Time;durP1;ratioP1;P1;durP2;ratioP2;P2;SDS_P1;SDS_P2;PMS_P1;PMS_P2;Temp;Humidity;BMP_temperature;BMP_pressure;BME280_temperature;BME280_humidity;BME280_pressure;Samples;Min_cycle;Max_cycle;Signal;HPM_P1;HPM_P2
2022/07/09 00:01:08;;;;;;;4.07;2.47;;;16.10;99.90;;;;;;5115336;28;20323;-85
2022/07/09 00:03:36;;;;;;;2.58;1.85;;;16.10;99.90;;;;;;5115340;28;20311;-85
2022/07/09 00:06:05;;;;;;;2.42;2.22;;;16.10;99.90;;;;;;5115409;28;20208;-85
2022/07/09 00:08:35;;;;;;;2.55;2.35;;;16.10;99.90;;;;;;5115640;28;20267;-85
2022/07/09 00:11:04;;;;;;;3.22;2.55;;;16.10;99.90;;;;;;5115397;28;20223;-85
2022/07/09 00:13:32;;;;;;;2.47;1.95;;;16.00;99.90;;;;;;5115011;28;20306;-85
2022/07/09 00:16:00;;;;;;;2.40;2.03;;;16.10;99.90;;;;;;5115270;28;20235;-85
2022/07/09 00:18:29;;;;;;;2.40;2.20;;;16.10;99.90;;;;;;5115031;28;20218;-84
2022/07/09 00:20:58;;;;;;;2.90;2.20;;;16.00;99.90;;;;;;5114817;28;20215;-85
2022/07/09 00:23:26;;;;;;;2.35;2.17;;;16.00;99.90;;;;;;5115250;28;20261;-85
2022/07/09 00:25:56;;;;;;;2.55;2.00;;;16.10;99.90;;;;;;5113311;28;20215;-85
2022/07/09 00:28:24;;;;;;;8.85;2.42;;;16.10;99.90;;;;;;5114899;28;20200;-85
2022/07/09 00:30:52;;;;;;;2.03;1.80;;;16.10;99.90;;;;;;5114796;28;20283;-85
2022/07/09 00:33:21;;;;;;;1.88;1.75;;;16.20;99.90;;;;;;5115270;28;20254;-85
2022/07/09 00:35:49;;;;;;;4.13;2.22;;;16.20;99.90;;;;;;5114918;28;20246;-85
2022/07/09 00:38:17;;;;;;;3.40;2.17;;;16.20;99.90;;;;;;5114808;28;20224;-85
2022/07/09 00:40:45;;;;;;;2.55;2.35;;;16.30;99.90;;;;;;5114726;27;20234;-85
2022/07/09 00:43:19;;;;;;;3.97;3.05;;;16.30;99.90;;;;;;5114495;28;20335;-85
2022/07/09 00:45:48;;;;;;;2.53;2.33;;;16.30;99.90;;;;;;5114357;28;20211;-85
2022/07/09 00:48:19;;;;;;;5.30;2.38;;;16.40;99.90;;;;;;5115007;28;20218;-85
2022/07/09 00:50:48;;;;;;;1.80;1.70;;;16.40;99.90;;;;;;5114585;28;20212;-85
2022/07/09 00:53:18;;;;;;;2.20;2.00;;;16.40;99.90;;;;;;5113853;28;20227;-85
2022/07/09 00:55:48;;;;;;;8.52;2.97;;;16.40;99.90;;;;;;5114618;28;20235;-85
2022/07/09 00:58:19;;;;;;;2.78;2.50;;;16.40;99.90;;;;;;5114546;28;20234;-84
2022/07/09 01:00:47;;;;;;;3.33;1.83;;;16.40;99.90;;;;;;5114045;28;20215;-85
2022/07/09 01:03:15;;;;;;;2.08;1.95;;;16.40;99.90;;;;;;5114234;28;20243;-84
2022/07/09 01:05:44;;;;;;;1.73;1.63;;;16.30;99.90;;;;;;5114133;27;20204;-85
2022/07/09 01:08:12;;;;;;;2.35;2.03;;;16.30;99.90;;;;;;5114060;28;20207;-85
2022/07/09 01:10:41;;;;;;;2.35;2.15;;;16.20;99.90;;;;;;5113594;28;20299;-85
2022/07/09 01:13:10;;;;;;;1.92;1.80;;;16.20;99.90;;;;;;5113623;28;20243;-85
2022/07/09 01:15:41;;;;;;;2.20;2.00;;;16.20;99.90;;;;;;5113897;28;20211;-85
2022/07/09 01:18:11;;;;;;;2.10;1.90;;;16.10;99.90;;;;;;5113850;28;20214;-85
2022/07/09 01:20:41;;;;;;;1.77;1.67;;;16.10;99.90;;;;;;5113625;28;20207;-85
2022/07/09 01:23:09;;;;;;;2.22;2.03;;;16.10;99.90;;;;;;5113636;28;20284;-85
2022/07/09 01:25:38;;;;;;;4.03;2.15;;;16.00;99.90;;;;;;5113380;28;20287;-85
2022/07/09 01:28:09;;;;;;;1.83;1.73;;;16.00;99.90;;;;;;5114107;28;20358;-85
2022/07/09 01:30:39;;;;;;;3.33;2.05;;;16.00;99.90;;;;;;5113999;28;20200;-85
2022/07/09 01:33:08;;;;;;;1.67;1.58;;;16.00;99.90;;;;;;5113805;28;20251;-85
2022/07/09 01:35:36;;;;;;;4.05;2.03;;;16.00;99.90;;;;;;5113440;28;20211;-85
2022/07/09 01:38:06;;;;;;;2.10;1.75;;;16.00;99.90;;;;;;5114024;28;20235;-85
2022/07/09 01:40:34;;;;;;;2.50;1.95;;;16.00;99.90;;;;;;5113845;28;20204;-85
2022/07/09 01:43:02;;;;;;;2.50;1.98;;;15.90;99.90;;;;;;5113650;28;20224;-85
2022/07/09 01:45:31;;;;;;;4.03;2.17;;;15.90;99.90;;;;;;5113536;28;20204;-85
2022/07/09 01:47:59;;;;;;;2.05;1.95;;;15.90;99.90;;;;;;5113415;28;20231;-85
2022/07/09 01:50:27;;;;;;;2.88;1.92;;;15.90;99.90;;;;;;5113595;28;20208;-85
2022/07/09 01:52:55;;;;;;;1.92;1.80;;;15.90;99.90;;;;;;5113372;28;20262;-85
2022/07/09 01:55:25;;;;;;;1.80;1.70;;;15.80;99.90;;;;;;5113846;28;20227;-85
2022/07/09 01:57:54;;;;;;;2.72;2.22;;;15.80;99.90;;;;;;5113859;28;20199;-85
2022/07/09 02:00:23;;;;;;;1.73;1.63;;;15.80;99.90;;;;;;5113089;28;20200;-85
2022/07/09 02:02:51;;;;;;;1.73;1.63;;;15.70;99.90;;;;;;5112818;28;20228;-85
2022/07/09 02:05:20;;;;;;;2.58;1.95;;;15.70;99.90;;;;;;5113179;28;20235;-85
2022/07/09 02:07:48;;;;;;;2.40;1.55;;;15.70;99.90;;;;;;5113504;28;20225;-85
2022/07/09 02:10:16;;;;;;;2.53;1.73;;;15.70;99.90;;;;;;5112849;28;20249;-85
2022/07/09 02:12:46;;;;;;;2.53;2.10;;;15.60;99.90;;;;;;5113332;28;20239;-85
2022/07/09 02:15:14;;;;;;;3.47;2.22;;;15.60;99.90;;;;;;5112821;28;20407;-85
2022/07/09 02:17:43;;;;;;;2.08;1.90;;;15.60;99.90;;;;;;5112774;28;20238;-85
2022/07/09 02:20:11;;;;;;;2.08;1.88;;;15.60;99.90;;;;;;5113417;28;20204;-84
2022/07/09 02:22:40;;;;;;;3.80;1.83;;;15.60;99.90;;;;;;5113122;28;20216;-85
2022/07/09 02:25:09;;;;;;;3.20;1.70;;;15.60;99.90;;;;;;5113250;28;20235;-85
2022/07/09 02:27:38;;;;;;;1.58;1.48;;;15.60;99.90;;;;;;5113174;28;20204;-85
2022/07/09 02:30:08;;;;;;;2.35;1.92;;;15.60;99.90;;;;;;5113149;28;20303;-85
2022/07/09 02:32:38;;;;;;;2.20;2.00;;;15.60;99.90;;;;;;5112968;28;20285;-85
2022/07/09 02:35:07;;;;;;;1.80;1.60;;;15.60;99.90;;;;;;5113215;28;20223;-85
2022/07/09 02:37:36;;;;;;;1.88;1.70;;;15.70;99.90;;;;;;5113114;28;20230;-85
2022/07/09 02:40:05;;;;;;;2.45;1.70;;;15.70;99.90;;;;;;5112791;28;20325;-85
2022/07/09 02:42:34;;;;;;;3.22;1.73;;;15.70;99.90;;;;;;5112663;28;20224;-85
2022/07/09 02:45:03;;;;;;;1.67;1.58;;;15.80;99.90;;;;;;5113055;28;20224;-85
2022/07/09 02:47:33;;;;;;;2.60;1.65;;;15.90;99.90;;;;;;5112752;28;20208;-85
2022/07/09 02:50:01;;;;;;;2.90;1.75;;;15.90;99.90;;;;;;5116738;28;20212;-84
2022/07/09 02:52:29;;;;;;;1.88;1.60;;;15.90;99.90;;;;;;5116878;28;20287;-85
2022/07/09 02:54:57;;;;;;;2.38;2.15;;;16.00;99.90;;;;;;5116839;27;20259;-84
2022/07/09 02:57:25;;;;;;;2.20;1.77;;;16.00;99.90;;;;;;5116894;28;20203;-84
2022/07/09 02:59:53;;;;;;;1.90;1.70;;;16.00;99.90;;;;;;5116678;28;20203;-85
2022/07/09 03:02:22;;;;;;;2.35;2.10;;;16.10;99.90;;;;;;5116304;28;20204;-85
2022/07/09 03:04:52;;;;;;;2.13;1.70;;;16.10;99.90;;;;;;5117006;28;20212;-84
2022/07/09 03:07:20;;;;;;;1.85;1.67;;;16.10;99.90;;;;;;5116716;28;20200;-85
2022/07/09 03:09:49;;;;;;;2.08;1.92;;;16.10;99.90;;;;;;5116325;28;20208;-85
2022/07/09 03:12:17;;;;;;;1.67;1.58;;;16.20;99.90;;;;;;5116075;28;20310;-85
2022/07/09 03:14:46;;;;;;;3.33;1.70;;;16.20;99.90;;;;;;5116509;28;20227;-85
2022/07/09 03:17:14;;;;;;;2.28;1.60;;;16.20;99.90;;;;;;5116547;28;20229;-85
2022/07/09 03:19:43;;;;;;;1.90;1.63;;;16.20;99.90;;;;;;5116157;28;20238;-85
2022/07/09 03:22:13;;;;;;;2.75;2.03;;;16.20;99.90;;;;;;5116321;27;20271;-85
2022/07/09 03:24:41;;;;;;;2.20;2.00;;;16.30;99.90;;;;;;5116153;27;20215;-85
2022/07/09 03:27:10;;;;;;;1.80;1.60;;;16.30;99.90;;;;;;5115480;28;20195;-85
2022/07/09 03:29:38;;;;;;;2.22;2.03;;;16.30;99.90;;;;;;5116347;28;20227;-85
2022/07/09 03:32:07;;;;;;;3.00;2.10;;;16.30;99.90;;;;;;5116066;27;20226;-85
2022/07/09 03:34:36;;;;;;;1.67;1.58;;;16.30;99.90;;;;;;5116112;28;20302;-85
2022/07/09 03:37:04;;;;;;;2.20;2.00;;;16.30;99.90;;;;;;5116031;28;20246;-85
2022/07/09 03:39:35;;;;;;;1.98;1.75;;;16.30;99.90;;;;;;5116003;27;20208;-85
2022/07/09 03:42:06;;;;;;;4.80;2.20;;;16.30;99.90;;;;;;5116106;28;20212;-85
2022/07/09 03:44:34;;;;;;;1.42;1.33;;;16.40;99.90;;;;;;5115823;28;20227;-85
2022/07/09 03:47:03;;;;;;;3.20;1.83;;;16.40;99.90;;;;;;5115794;28;20264;-85
2022/07/09 03:49:31;;;;;;;2.25;1.70;;;16.40;99.90;;;;;;5115723;28;20273;-85
2022/07/09 03:51:59;;;;;;;4.95;2.17;;;16.40;99.90;;;;;;5115295;28;20287;-85
2022/07/09 03:54:49;;;;;;;4.60;1.90;;;16.40;99.90;;;;;;5115686;28;20203;-85
2022/07/09 03:57:17;;;;;;;2.38;1.85;;;16.50;99.90;;;;;;5115850;28;20257;-85
2022/07/09 03:59:45;;;;;;;2.85;1.73;;;16.50;99.90;;;;;;5115459;28;20223;-85
2022/07/09 04:02:14;;;;;;;2.03;1.70;;;16.50;99.90;;;;;;5114894;28;20231;-85
2022/07/09 04:04:43;;;;;;;1.70;1.60;;;16.50;99.90;;;;;;5115077;28;20316;-85
2022/07/09 04:07:11;;;;;;;1.73;1.63;;;16.50;99.90;;;;;;5115503;28;20261;-85
2022/07/09 04:09:39;;;;;;;2.50;1.80;;;16.50;99.90;;;;;;5115771;28;20207;-85
2022/07/09 04:12:09;;;;;;;1.52;1.42;;;16.60;99.90;;;;;;5115105;28;20239;-85
2022/07/09 04:14:38;;;;;;;1.70;1.60;;;16.60;99.90;;;;;;5115309;28;20224;-85
2022/07/09 04:17:07;;;;;;;3.67;1.92;;;16.60;99.90;;;;;;5115506;28;20250;-85
2022/07/09 04:19:35;;;;;;;1.55;1.45;;;16.70;99.90;;;;;;5115201;28;20204;-85
2022/07/09 04:22:04;;;;;;;2.42;1.90;;;16.70;99.90;;;;;;5115010;28;20242;-85
2022/07/09 04:24:32;;;;;;;3.05;1.77;;;16.70;99.90;;;;;;5114945;28;20310;-85
2022/07/09 04:27:00;;;;;;;1.60;1.50;;;16.70;99.90;;;;;;5114839;28;20204;-85
2022/07/09 04:29:30;;;;;;;2.13;1.92;;;16.80;99.90;;;;;;5114840;28;20274;-84
2022/07/09 04:31:58;;;;;;;2.03;1.70;;;16.90;99.90;;;;;;5114706;28;20246;-85
2022/07/09 04:34:27;;;;;;;1.80;1.60;;;16.90;99.90;;;;;;5114669;28;20252;-85
2022/07/09 04:36:55;;;;;;;1.75;1.50;;;16.90;99.90;;;;;;5114809;28;20207;-85
2022/07/09 04:39:24;;;;;;;2.00;1.90;;;17.00;99.90;;;;;;5115144;28;20212;-85
2022/07/09 04:41:52;;;;;;;1.85;1.65;;;17.00;99.90;;;;;;5114449;28;20204;-85
2022/07/09 04:44:20;;;;;;;1.90;1.75;;;17.00;99.90;;;;;;5114284;27;20311;-85
2022/07/09 04:46:50;;;;;;;2.35;1.90;;;17.00;99.90;;;;;;5114611;28;20238;-85
2022/07/09 04:49:20;;;;;;;2.30;1.70;;;17.00;99.90;;;;;;5114205;28;20239;-85
2022/07/09 04:51:49;;;;;;;2.35;2.15;;;17.00;99.90;;;;;;5114304;28;20222;-85
2022/07/09 04:54:17;;;;;;;2.15;1.85;;;17.00;99.90;;;;;;5114353;28;20228;-85
2022/07/09 04:56:45;;;;;;;3.03;1.75;;;17.00;99.90;;;;;;5114312;28;20301;-85
2022/07/09 04:59:13;;;;;;;5.80;2.20;;;16.90;99.90;;;;;;5114428;27;20286;-85
2022/07/09 05:01:41;;;;;;;6.05;2.22;;;16.80;99.90;;;;;;5114006;28;20207;-85
2022/07/09 05:04:11;;;;;;;2.05;1.73;;;16.80;99.90;;;;;;5114225;28;20266;-85
2022/07/09 05:06:39;;;;;;;3.92;1.90;;;16.80;99.90;;;;;;5114055;28;20239;-85
2022/07/09 05:09:08;;;;;;;2.30;1.50;;;16.80;99.90;;;;;;5113835;28;20230;-85
2022/07/09 05:11:36;;;;;;;2.55;1.98;;;16.80;99.90;;;;;;5113372;28;20219;-85
2022/07/09 05:14:04;;;;;;;3.38;1.80;;;16.80;99.90;;;;;;5114249;28;20224;-85
2022/07/09 05:16:33;;;;;;;2.28;2.03;;;16.80;99.90;;;;;;5113942;28;20230;-85
2022/07/09 05:19:01;;;;;;;1.70;1.60;;;16.80;99.90;;;;;;5114314;28;20203;-85
2022/07/09 05:21:31;;;;;;;3.45;2.00;;;16.90;99.90;;;;;;5113558;28;20238;-85
2022/07/09 05:24:01;;;;;;;1.95;1.75;;;16.90;99.90;;;;;;5113590;28;20228;-85
2022/07/09 05:26:29;;;;;;;1.63;1.52;;;16.90;99.90;;;;;;5113322;28;20208;-85
2022/07/09 05:28:57;;;;;;;2.03;1.92;;;16.90;99.90;;;;;;5114125;28;20204;-85
2022/07/09 05:31:26;;;;;;;2.13;1.92;;;17.00;99.90;;;;;;5113779;28;20290;-85
2022/07/09 05:34:03;;;;;;;2.30;1.85;;;17.00;99.90;;;;;;5113628;28;20223;-85
2022/07/09 05:36:33;;;;;;;2.20;1.55;;;17.00;99.90;;;;;;5113711;28;20292;-85
2022/07/09 05:39:01;;;;;;;1.90;1.80;;;17.10;99.90;;;;;;5113638;28;20216;-85
2022/07/09 05:41:30;;;;;;;2.55;2.25;;;17.20;99.90;;;;;;5113232;28;20263;-85
2022/07/09 05:43:58;;;;;;;1.70;1.60;;;17.40;99.90;;;;;;5113438;28;20220;-85
2022/07/09 05:46:26;;;;;;;2.40;1.67;;;17.50;99.90;;;;;;5113703;28;20233;-85
2022/07/09 05:48:55;;;;;;;1.50;1.40;;;17.80;99.90;;;;;;5113290;28;20203;-85
2022/07/09 05:51:23;;;;;;;2.38;1.70;;;17.80;99.90;;;;;;5113645;28;20207;-84
2022/07/09 05:53:53;;;;;;;2.20;1.73;;;17.90;99.90;;;;;;5113580;28;20224;-85
2022/07/09 05:56:22;;;;;;;2.95;1.70;;;17.90;99.90;;;;;;5113418;28;20207;-85
2022/07/09 05:58:50;;;;;;;2.03;1.15;;;17.90;99.90;;;;;;5113446;28;20210;-85
2022/07/09 06:01:19;;;;;;;1.65;1.52;;;17.80;99.90;;;;;;5113126;28;20200;-85
2022/07/09 06:03:53;;;;;;;2.10;1.90;;;17.80;99.90;;;;;;5112992;28;20231;-85
2022/07/09 06:06:22;;;;;;;3.22;1.75;;;17.80;99.90;;;;;;5113177;28;20211;-85
2022/07/09 06:08:50;;;;;;;2.17;1.65;;;17.90;99.90;;;;;;5113302;28;20227;-85
2022/07/09 06:11:20;;;;;;;2.42;1.67;;;17.80;99.90;;;;;;5112973;28;20234;-85
2022/07/09 06:13:48;;;;;;;1.88;1.70;;;17.80;99.90;;;;;;5113460;28;20249;-85
2022/07/09 06:16:17;;;;;;;1.85;1.70;;;17.80;99.90;;;;;;5113136;28;20223;-85
2022/07/09 06:18:45;;;;;;;2.30;1.52;;;17.90;99.90;;;;;;5113508;28;20207;-85
2022/07/09 06:21:13;;;;;;;1.52;1.42;;;18.00;99.90;;;;;;5112777;28;20204;-85
2022/07/09 06:23:42;;;;;;;2.60;1.80;;;18.10;99.90;;;;;;5114775;28;20257;-85
2022/07/09 06:26:10;;;;;;;2.22;1.73;;;18.10;99.90;;;;;;5116918;28;20303;-85
2022/07/09 06:28:40;;;;;;;1.98;1.52;;;18.20;99.90;;;;;;5117705;28;20240;-85
2022/07/09 06:31:08;;;;;;;2.45;1.92;;;18.30;99.90;;;;;;5117201;28;20227;-85
2022/07/09 06:33:36;;;;;;;2.38;1.80;;;18.30;99.90;;;;;;5116881;28;20310;-85
2022/07/09 06:36:05;;;;;;;1.48;1.38;;;18.30;99.90;;;;;;5117358;28;20219;-85
2022/07/09 06:39:44;;;;;;;1.40;1.30;;;18.40;99.90;;;;;;5117272;28;20238;-85
2022/07/09 06:41:22;;;;;;;1.63;1.50;;;18.50;99.90;;;;;;5117016;28;20224;-85
2022/07/09 06:43:52;;;;;;;1.92;1.83;;;18.60;99.90;;;;;;5116936;28;20247;-85
2022/07/09 06:46:20;;;;;;;1.92;1.60;;;18.80;99.90;;;;;;5116594;28;20319;-84
2022/07/09 06:48:48;;;;;;;3.20;2.17;;;18.80;99.90;;;;;;5117080;28;20231;-85
2022/07/09 06:51:17;;;;;;;3.65;1.70;;;19.00;99.90;;;;;;5116717;28;20203;-85
2022/07/09 06:53:45;;;;;;;2.10;1.90;;;19.00;99.90;;;;;;5116838;28;20247;-85
2022/07/09 06:56:13;;;;;;;4.50;1.58;;;19.20;99.90;;;;;;5116774;28;20204;-85
2022/07/09 06:58:42;;;;;;;2.67;1.80;;;19.20;99.90;;;;;;5116617;28;20204;-85
2022/07/09 07:01:11;;;;;;;3.15;1.92;;;19.50;99.90;;;;;;5116361;28;20208;-85
2022/07/09 07:03:40;;;;;;;2.10;1.63;;;19.70;99.90;;;;;;5116968;28;20223;-85
2022/07/09 07:06:08;;;;;;;2.55;1.67;;;19.80;99.90;;;;;;5116658;28;20251;-85
2022/07/09 07:08:37;;;;;;;1.65;1.55;;;19.80;99.90;;;;;;5116541;27;20257;-85
2022/07/09 07:11:05;;;;;;;11.65;1.75;;;20.10;99.90;;;;;;5115672;28;20214;-85
2022/07/09 07:13:34;;;;;;;3.13;1.58;;;20.30;99.90;;;;;;5116282;28;20228;-85
2022/07/09 07:16:02;;;;;;;1.70;1.60;;;20.40;99.90;;;;;;5116333;28;20242;-85
2022/07/09 07:18:32;;;;;;;4.40;1.65;;;20.40;99.90;;;;;;5116009;28;20261;-85
2022/07/09 07:21:00;;;;;;;3.33;1.50;;;20.50;99.90;;;;;;5116323;28;20299;-85
2022/07/09 07:23:31;;;;;;;1.58;1.48;;;20.90;99.90;;;;;;5116259;28;20224;-85
2022/07/09 07:25:59;;;;;;;1.70;1.35;;;21.40;99.90;;;;;;5115794;28;20226;-85
2022/07/09 07:28:28;;;;;;;2.95;1.70;;;21.40;99.90;;;;;;5116083;28;20222;-85
2022/07/09 07:30:56;;;;;;;2.15;1.60;;;21.10;99.90;;;;;;5116123;28;20207;-85
2022/07/09 07:33:24;;;;;;;2.00;1.67;;;21.80;99.90;;;;;;5115461;28;20243;-85
2022/07/09 07:35:54;;;;;;;2.47;1.65;;;22.00;99.90;;;;;;5115739;28;20256;-85
2022/07/09 07:38:22;;;;;;;2.03;1.40;;;22.00;99.90;;;;;;5116211;28;20204;-85
2022/07/09 07:40:50;;;;;;;1.83;1.30;;;21.90;99.90;;;;;;5115904;27;20230;-85
2022/07/09 07:43:19;;;;;;;1.58;1.48;;;21.70;99.90;;;;;;5115706;28;20315;-85
2022/07/09 07:45:47;;;;;;;1.30;1.20;;;22.70;99.90;;;;;;5115570;28;20303;-85
2022/07/09 07:48:15;;;;;;;1.52;1.42;;;23.90;99.90;;;;;;5115785;28;20199;-85
2022/07/09 07:50:44;;;;;;;1.40;1.30;;;24.30;99.90;;;;;;5115708;28;20278;-85
2022/07/09 07:53:13;;;;;;;1.98;1.58;;;24.80;99.90;;;;;;5115812;28;20258;-85
2022/07/09 07:55:42;;;;;;;1.65;1.55;;;24.70;99.90;;;;;;5115856;28;20295;-85
2022/07/09 07:58:10;;;;;;;2.50;1.60;;;24.10;99.90;;;;;;5115646;27;20231;-85
2022/07/09 08:00:38;;;;;;;1.42;1.30;;;23.40;99.90;;;;;;5115491;28;20223;-85
2022/07/09 08:03:06;;;;;;;1.52;1.42;;;23.70;99.90;;;;;;5115320;28;20287;-85
2022/07/09 08:05:35;;;;;;;1.48;1.38;;;24.70;99.90;;;;;;5115379;28;20269;-85
2022/07/09 08:08:03;;;;;;;2.08;1.70;;;25.30;99.50;;;;;;5115326;28;20227;-85
2022/07/09 08:10:33;;;;;;;8.77;1.60;;;24.80;98.90;;;;;;5114824;28;20231;-85
2022/07/09 08:13:03;;;;;;;2.05;1.85;;;24.80;99.10;;;;;;5115362;28;20231;-85
2022/07/09 08:15:32;;;;;;;1.65;1.55;;;24.90;99.80;;;;;;5115360;28;20241;-85
2022/07/09 08:18:00;;;;;;;1.63;1.52;;;25.10;99.20;;;;;;5115121;28;20230;-85
2022/07/09 08:20:28;;;;;;;1.90;1.70;;;25.70;98.90;;;;;;5114860;28;20208;-85
2022/07/09 08:22:57;;;;;;;1.60;1.50;;;26.30;98.60;;;;;;5115010;28;20227;-85
2022/07/09 08:25:25;;;;;;;2.13;1.98;;;26.80;97.40;;;;;;5114378;28;20281;-85
2022/07/09 08:27:55;;;;;;;2.17;1.98;;;27.80;95.30;;;;;;5115043;28;20232;-85
2022/07/09 08:30:23;;;;;;;5.63;1.50;;;28.20;94.70;;;;;;5114857;28;20223;-85
2022/07/09 08:32:51;;;;;;;2.20;1.58;;;27.40;93.00;;;;;;5114883;28;20231;-85
2022/07/09 08:35:20;;;;;;;1.58;1.48;;;27.50;92.80;;;;;;5114768;28;20227;-85
2022/07/09 08:37:48;;;;;;;1.65;1.52;;;28.30;92.40;;;;;;5115364;28;20204;-85
2022/07/09 08:40:16;;;;;;;1.77;1.58;;;28.90;90.60;;;;;;5114400;28;20223;-85
2022/07/09 08:42:45;;;;;;;1.70;1.60;;;29.50;89.00;;;;;;5114929;28;20224;-85
2022/07/09 08:45:17;;;;;;;1.63;1.52;;;30.20;87.80;;;;;;5114380;28;20223;-85
2022/07/09 08:47:45;;;;;;;1.38;1.27;;;30.60;85.80;;;;;;5114295;28;20207;-86
2022/07/09 08:50:14;;;;;;;5.55;1.75;;;29.50;81.40;;;;;;5114237;28;20231;-86
2022/07/09 08:52:42;;;;;;;1.75;1.55;;;27.40;84.50;;;;;;5114337;28;20315;-86
2022/07/09 08:55:11;;;;;;;1.33;1.23;;;25.40;88.30;;;;;;5114915;28;20289;-86
2022/07/09 08:57:39;;;;;;;2.58;1.63;;;25.40;90.60;;;;;;5114768;27;20223;-86
2022/07/09 09:00:08;;;;;;;1.70;1.45;;;26.50;89.70;;;;;;5114377;28;20226;-86
2022/07/09 09:02:39;;;;;;;1.58;1.48;;;27.60;86.70;;;;;;5114134;28;20327;-86
2022/07/09 09:05:13;;;;;;;1.20;1.10;;;28.60;84.80;;;;;;5114154;28;20238;-86
2022/07/09 09:07:41;;;;;;;1.75;1.65;;;28.60;82.60;;;;;;5114409;28;20220;-86
2022/07/09 09:10:20;;;;;;;1.70;1.60;;;29.40;81.40;;;;;;5114524;28;20242;-86
2022/07/09 09:12:49;;;;;;;1.92;1.80;;;29.70;78.00;;;;;;5114070;28;20301;-85
2022/07/09 09:15:19;;;;;;;5.00;1.73;;;29.70;77.40;;;;;;5113963;28;20207;-86
2022/07/09 09:17:49;;;;;;;1.67;1.58;;;29.20;77.90;;;;;;5114164;28;20207;-86
2022/07/09 09:20:18;;;;;;;2.97;1.73;;;29.20;77.00;;;;;;5114094;28;20203;-86
2022/07/09 09:22:49;;;;;;;2.10;1.85;;;29.70;76.20;;;;;;5114049;28;20223;-86
2022/07/09 09:25:19;;;;;;;1.88;1.77;;;29.80;74.20;;;;;;5113749;28;20208;-86
2022/07/09 09:27:52;;;;;;;4.30;2.08;;;29.30;74.10;;;;;;5113520;28;20262;-86
2022/07/09 09:30:21;;;;;;;2.67;2.17;;;27.10;77.50;;;;;;5113494;28;20280;-86
2022/07/09 09:33:01;;;;;;;2.10;1.88;;;25.40;82.00;;;;;;5113616;28;20262;-86
2022/07/09 09:35:30;;;;;;;2.22;2.03;;;24.70;84.40;;;;;;5113695;27;20204;-86
2022/07/09 09:37:59;;;;;;;1.95;1.85;;;23.90;87.40;;;;;;5113825;28;20291;-86
2022/07/09 09:40:27;;;;;;;2.17;1.98;;;24.30;86.50;;;;;;5113515;28;20208;-86
2022/07/09 09:42:58;;;;;;;1.85;1.75;;;25.20;86.00;;;;;;5113562;28;20312;-86
2022/07/09 09:45:28;;;;;;;1.58;1.48;;;26.40;82.80;;;;;;5113620;28;20211;-86
2022/07/09 09:47:59;;;;;;;1.63;1.50;;;27.10;80.70;;;;;;5113182;28;20269;-86
2022/07/09 09:50:29;;;;;;;2.38;2.00;;;26.80;81.30;;;;;;5113534;28;20195;-86
2022/07/09 09:52:57;;;;;;;1.67;1.58;;;26.40;79.60;;;;;;5113215;27;20300;-86
2022/07/09 09:55:25;;;;;;;1.55;1.45;;;25.60;79.70;;;;;;5113725;28;20199;-86
2022/07/09 09:57:55;;;;;;;2.15;1.95;;;25.30;80.90;;;;;;5113197;28;20208;-86
2022/07/09 10:00:25;;;;;;;3.25;1.90;;;24.50;82.60;;;;;;5113175;28;20268;-86
2022/07/09 10:02:53;;;;;;;1.58;1.48;;;24.50;83.70;;;;;;5113344;28;20228;-86
2022/07/09 10:05:23;;;;;;;1.60;1.50;;;24.80;82.90;;;;;;5113023;28;20200;-86
2022/07/09 10:07:51;;;;;;;1.38;1.27;;;25.80;81.20;;;;;;5113331;28;20243;-86
2022/07/09 10:10:21;;;;;;;1.13;1.13;;;26.90;79.10;;;;;;5112557;28;20229;-86
2022/07/09 10:12:50;;;;;;;1.67;1.58;;;27.20;77.90;;;;;;5113092;28;20219;-86
2022/07/09 10:15:22;;;;;;;1.88;1.67;;;27.10;77.60;;;;;;5113847;28;20243;-85
2022/07/09 10:17:51;;;;;;;1.80;1.70;;;27.00;77.20;;;;;;5114967;28;20208;-86
2022/07/09 10:20:33;;;;;;;4.72;1.77;;;27.90;76.90;;;;;;5113198;28;20233;-86
2022/07/09 10:23:03;;;;;;;1.35;1.30;;;28.90;73.90;;;;;;5113763;28;20232;-86
2022/07/09 10:25:42;;;;;;;1.52;1.42;;;29.40;72.90;;;;;;5112630;28;20226;-86
2022/07/09 10:28:16;;;;;;;1.73;1.55;;;29.70;72.60;;;;;;5112922;28;20258;-86
2022/07/09 10:30:44;;;;;;;2.33;1.50;;;29.30;71.80;;;;;;5112955;28;20207;-86
2022/07/09 10:33:14;;;;;;;1.65;1.55;;;28.70;71.40;;;;;;5113150;28;20245;-86
2022/07/09 10:35:45;;;;;;;1.52;1.42;;;28.70;72.90;;;;;;5112814;28;20226;-86
2022/07/09 10:38:15;;;;;;;1.60;1.50;;;28.40;72.70;;;;;;5113281;28;20204;-86
2022/07/09 10:40:45;;;;;;;1.30;1.23;;;27.20;73.30;;;;;;5112855;28;20230;-86
2022/07/09 10:43:14;;;;;;;1.58;1.48;;;26.60;75.30;;;;;;5112933;28;20251;-86
2022/07/09 10:45:44;;;;;;;4.88;1.30;;;26.60;76.10;;;;;;5113197;28;20265;-86
2022/07/09 10:48:15;;;;;;;2.53;1.52;;;27.30;76.90;;;;;;5112941;28;20254;-86
2022/07/09 10:50:47;;;;;;;1.00;1.00;;;27.90;73.80;;;;;;5112971;28;20300;-86
2022/07/09 10:53:17;;;;;;;1.23;1.20;;;28.20;73.20;;;;;;5112912;28;20232;-86
2022/07/09 10:55:46;;;;;;;1.80;1.70;;;28.40;73.10;;;;;;5112810;28;20219;-86
2022/07/09 10:58:17;;;;;;;1.60;1.38;;;28.90;72.00;;;;;;5112776;28;20239;-86
2022/07/09 11:00:46;;;;;;;1.88;1.40;;;29.70;72.20;;;;;;5112499;28;20300;-86
2022/07/09 11:03:14;;;;;;;1.88;1.58;;;30.40;70.30;;;;;;5112558;28;20247;-86
2022/07/09 11:05:47;;;;;;;1.45;1.35;;;30.40;69.10;;;;;;5112801;28;20203;-86
2022/07/09 11:08:15;;;;;;;1.05;1.05;;;29.80;69.60;;;;;;5112445;28;20246;-85
2022/07/09 11:10:43;;;;;;;1.63;1.52;;;29.50;70.10;;;;;;5115501;28;20226;-86
2022/07/09 11:13:18;;;;;;;1.20;1.20;;;29.50;70.60;;;;;;5117020;28;20230;-86
2022/07/09 11:15:46;;;;;;;4.70;1.40;;;30.00;71.30;;;;;;5116475;28;20204;-86
2022/07/09 11:18:14;;;;;;;2.60;1.90;;;30.50;70.00;;;;;;5116128;28;20200;-86
2022/07/09 11:20:44;;;;;;;1.45;1.35;;;30.40;69.40;;;;;;5116370;28;20229;-87
2022/07/09 11:23:16;;;;;;;1.00;1.00;;;30.10;69.50;;;;;;5116590;28;20219;-86
2022/07/09 11:25:46;;;;;;;1.50;1.40;;;29.70;70.10;;;;;;5116225;28;20223;-86
2022/07/09 11:28:20;;;;;;;1.52;1.42;;;29.70;70.30;;;;;;5115953;28;20246;-86
2022/07/09 11:30:59;;;;;;;1.55;1.45;;;29.60;70.30;;;;;;5116069;28;20204;-86
2022/07/09 11:33:27;;;;;;;1.55;1.38;;;29.30;70.90;;;;;;5116086;28;20233;-86
2022/07/09 11:36:02;;;;;;;1.63;1.48;;;29.00;70.40;;;;;;5115888;28;20281;-86
2022/07/09 11:38:31;;;;;;;1.75;1.60;;;28.80;70.90;;;;;;5116003;28;20223;-86
2022/07/09 11:41:01;;;;;;;1.23;1.23;;;29.00;71.00;;;;;;5116181;28;20208;-86
2022/07/09 11:43:29;;;;;;;1.60;1.50;;;29.50;72.10;;;;;;5115935;28;20300;-86
2022/07/09 11:45:58;;;;;;;1.48;1.38;;;29.90;68.60;;;;;;5115841;28;20286;-86
2022/07/09 11:48:26;;;;;;;1.10;1.10;;;30.20;69.50;;;;;;5115744;28;20267;-86
2022/07/09 11:50:54;;;;;;;1.77;1.60;;;30.40;67.40;;;;;;5115634;28;20208;-86
2022/07/09 11:53:23;;;;;;;1.67;1.58;;;30.70;67.40;;;;;;5115603;28;20219;-86
2022/07/09 11:56:04;;;;;;;1.90;1.50;;;30.50;67.10;;;;;;5115704;28;20286;-86
2022/07/09 11:58:32;;;;;;;1.73;1.63;;;30.10;67.40;;;;;;5115579;28;20219;-86
2022/07/09 12:01:02;;;;;;;1.55;1.45;;;30.10;67.80;;;;;;5115499;28;20214;-86
2022/07/09 12:03:31;;;;;;;1.40;1.30;;;30.00;66.10;;;;;;5115345;28;20219;-86
2022/07/09 12:05:59;;;;;;;1.60;1.50;;;30.30;66.20;;;;;;5115389;28;20210;-86
2022/07/09 12:08:29;;;;;;;2.22;1.65;;;29.80;67.00;;;;;;5115237;27;20212;-86
2022/07/09 12:10:58;;;;;;;1.60;1.50;;;30.30;66.80;;;;;;5115113;28;20216;-86
2022/07/09 12:13:29;;;;;;;1.88;1.35;;;30.30;66.40;;;;;;5115362;27;20220;-86
2022/07/09 12:15:58;;;;;;;0.95;0.95;;;30.40;66.10;;;;;;5115480;28;20260;-86
2022/07/09 12:18:27;;;;;;;1.85;1.73;;;30.40;66.80;;;;;;5115154;28;20200;-86
2022/07/09 12:20:56;;;;;;;1.40;1.30;;;30.00;65.90;;;;;;5114802;28;20207;-87
2022/07/09 12:23:24;;;;;;;1.40;1.30;;;30.30;65.20;;;;;;5115208;28;20227;-87
2022/07/09 12:25:52;;;;;;;1.48;1.38;;;29.90;65.00;;;;;;5114932;28;20208;-87
2022/07/09 12:28:20;;;;;;;1.48;1.38;;;29.70;65.30;;;;;;5115008;28;20244;-86
2022/07/09 12:30:50;;;;;;;1.70;1.60;;;29.90;65.40;;;;;;5114388;28;20199;-87
2022/07/09 12:33:19;;;;;;;1.10;1.10;;;30.00;64.10;;;;;;5114833;28;20223;-87
2022/07/09 12:35:47;;;;;;;1.85;1.55;;;30.00;64.30;;;;;;5114677;27;20291;-87
2022/07/09 12:38:15;;;;;;;1.60;1.50;;;29.90;64.80;;;;;;5115348;28;20204;-86
2022/07/09 12:40:44;;;;;;;1.58;1.48;;;30.00;64.90;;;;;;5114746;28;20230;-87
2022/07/09 12:43:12;;;;;;;1.40;1.30;;;30.30;63.40;;;;;;5114845;28;20224;-87
2022/07/09 12:45:41;;;;;;;1.98;1.17;;;30.10;63.30;;;;;;5114779;28;20307;-87
2022/07/09 12:48:11;;;;;;;1.58;1.48;;;29.30;64.40;;;;;;5114494;28;20219;-86
2022/07/09 12:50:39;;;;;;;1.92;1.83;;;29.10;65.20;;;;;;5114642;28;20234;-86
2022/07/09 12:53:07;;;;;;;1.88;1.42;;;29.10;64.00;;;;;;5114674;28;20231;-87
2022/07/09 12:55:36;;;;;;;1.40;1.30;;;29.10;64.00;;;;;;5114389;28;20276;-86
2022/07/09 12:58:24;;;;;;;3.40;1.30;;;29.00;63.10;;;;;;5114385;28;20231;-87